createdAt,value
2023-03-25T00:01:55.569Z,10.90
2023-03-25T00:04:43.388Z,10.90
2023-03-25T00:07:31.650Z,10.80
2023-03-25T00:10:20.037Z,10.80
2023-03-25T00:13:08.601Z,10.80
2023-03-25T00:15:59.161Z,10.80
2023-03-25T00:18:48.184Z,10.80
2023-03-25T00:21:35.848Z,10.80
2023-03-25T00:24:23.406Z,10.80
2023-03-25T00:27:11.084Z,10.80
2023-03-25T00:29:58.628Z,10.80
2023-03-25T00:32:50.207Z,10.80
2023-03-25T00:35:39.712Z,10.70
2023-03-25T00:38:38.203Z,10.70
2023-03-25T00:41:27.137Z,10.70
2023-03-25T00:44:17.364Z,10.70
2023-03-25T00:47:04.888Z,10.70
2023-03-25T00:49:52.781Z,10.60
2023-03-25T00:52:40.752Z,10.60
2023-03-25T00:55:28.332Z,10.60
2023-03-25T00:58:15.826Z,10.50
2023-03-25T01:01:14.279Z,10.50
2023-03-25T01:04:01.803Z,10.50
2023-03-25T01:06:52.082Z,10.50
2023-03-25T01:09:42.206Z,10.50
2023-03-25T01:12:29.749Z,10.50
2023-03-25T01:15:17.287Z,10.50
2023-03-25T01:18:05.333Z,10.50
2023-03-25T01:20:52.832Z,10.40
2023-03-25T01:23:40.666Z,10.40
2023-03-25T01:26:28.159Z,10.50
2023-03-25T01:29:19.237Z,10.50
2023-03-25T01:32:06.921Z,10.50
2023-03-25T01:34:54.485Z,10.50
2023-03-25T01:37:44.268Z,10.50
2023-03-25T01:40:31.766Z,10.50
2023-03-25T01:43:20.257Z,10.50
2023-03-25T01:46:17.300Z,10.60
2023-03-25T01:49:10.044Z,10.50
2023-03-25T01:52:05.691Z,10.40
2023-03-25T01:54:57.213Z,10.40
2023-03-25T01:57:46.448Z,10.40
2023-03-25T02:00:34.471Z,10.30
2023-03-25T02:03:24.761Z,10.20
2023-03-25T02:06:26.662Z,10.10
2023-03-25T02:09:19.794Z,10.10
2023-03-25T02:12:07.417Z,10.00
2023-03-25T02:14:57.582Z,10.00
2023-03-25T02:18:19.284Z,9.90
2023-03-25T02:21:28.668Z,9.90
2023-03-25T02:24:54.298Z,9.80
2023-03-25T02:28:01.973Z,9.80
2023-03-25T02:31:02.059Z,9.70
2023-03-25T02:34:33.588Z,9.70
2023-03-25T02:37:37.172Z,9.70
2023-03-25T02:41:04.961Z,9.70
2023-03-25T02:44:07.893Z,9.70
2023-03-25T02:47:03.095Z,9.70
2023-03-25T02:50:01.180Z,9.70
2023-03-25T02:52:55.839Z,9.70
2023-03-25T02:55:48.148Z,9.70
2023-03-25T02:58:36.443Z,9.70
2023-03-25T03:01:26.973Z,9.70
2023-03-25T03:04:14.659Z,9.70
2023-03-25T03:07:02.288Z,9.60
2023-03-25T03:10:33.848Z,9.60
2023-03-25T03:13:45.556Z,9.60
2023-03-25T03:17:11.514Z,9.60
2023-03-25T03:20:15.325Z,9.50
2023-03-25T03:23:21.054Z,9.50
2023-03-25T03:26:42.045Z,9.40
2023-03-25T03:29:51.159Z,9.30
2023-03-25T03:33:01.318Z,9.30
2023-03-25T03:35:58.792Z,9.10
2023-03-25T03:38:54.601Z,9.00
2023-03-25T03:41:47.706Z,9.00
2023-03-25T03:44:40.188Z,8.90
2023-03-25T03:47:36.952Z,8.80
2023-03-25T03:50:36.750Z,8.70
2023-03-25T03:53:34.746Z,8.70
2023-03-25T03:56:41.402Z,8.70
2023-03-25T04:00:08.280Z,8.70
2023-03-25T04:03:19.136Z,8.70
2023-03-25T04:06:42.272Z,8.70
2023-03-25T04:09:41.161Z,8.70
2023-03-25T04:12:37.703Z,8.70
2023-03-25T04:15:25.678Z,8.70
2023-03-25T04:18:13.471Z,8.70
2023-03-25T04:21:01.997Z,8.70
2023-03-25T04:23:50.224Z,8.60
2023-03-25T04:26:38.462Z,8.70
2023-03-25T04:29:26.348Z,8.60
2023-03-25T04:32:14.971Z,8.60
2023-03-25T04:35:02.635Z,8.60
2023-03-25T04:37:53.819Z,8.60
2023-03-25T04:40:41.356Z,8.50
2023-03-25T04:43:28.870Z,8.40
2023-03-25T04:46:18.494Z,8.40
2023-03-25T04:49:14.262Z,8.30
2023-03-25T04:52:04.408Z,8.30
2023-03-25T04:54:51.963Z,8.20
2023-03-25T04:57:39.456Z,8.20
2023-03-25T05:00:27.372Z,8.10
2023-03-25T05:03:16.025Z,8.10
2023-03-25T05:06:03.609Z,8.10
2023-03-25T05:08:51.190Z,8.10
2023-03-25T05:11:39.977Z,8.10
2023-03-25T05:14:27.588Z,8.20
2023-03-25T05:17:15.496Z,8.20
2023-03-25T05:20:11.738Z,8.30
2023-03-25T05:22:59.290Z,8.40
2023-03-25T05:25:51.104Z,8.60
2023-03-25T05:28:41.510Z,8.70
2023-03-25T05:31:29.888Z,8.80
2023-03-25T05:34:17.775Z,9.00
2023-03-25T05:37:05.734Z,9.10
2023-03-25T05:39:53.288Z,9.30
2023-03-25T05:42:49.196Z,9.40
2023-03-25T05:45:37.302Z,9.50
2023-03-25T05:48:24.778Z,9.60
2023-03-25T05:51:16.875Z,9.60
2023-03-25T05:54:10.907Z,9.80
2023-03-25T05:56:59.141Z,9.80
2023-03-25T05:59:46.732Z,9.90
2023-03-25T06:02:38.963Z,10.00
2023-03-25T06:05:26.774Z,10.00
2023-03-25T06:08:14.339Z,10.00
2023-03-25T06:11:01.792Z,10.00
2023-03-25T06:13:52.354Z,10.00
2023-03-25T06:16:39.922Z,10.00
2023-03-25T06:19:27.557Z,10.00
2023-03-25T06:22:15.680Z,9.90
2023-03-25T06:25:04.451Z,10.10
2023-03-25T06:27:52.059Z,10.10
2023-03-25T06:30:39.572Z,10.10
2023-03-25T06:33:42.402Z,10.20
2023-03-25T06:36:31.810Z,10.20
2023-03-25T06:39:19.510Z,10.20
2023-03-25T06:42:07.542Z,10.30
2023-03-25T06:44:55.946Z,10.20
2023-03-25T06:47:43.631Z,10.20
2023-03-25T06:50:31.971Z,10.20
2023-03-25T06:53:19.559Z,10.20
2023-03-25T06:56:07.751Z,10.30
2023-03-25T06:58:55.374Z,10.30
2023-03-25T07:01:43.241Z,10.50
2023-03-25T07:04:33.106Z,10.70
2023-03-25T07:07:20.613Z,10.80
2023-03-25T07:10:08.742Z,10.90
2023-03-25T07:12:56.327Z,11.10
2023-03-25T07:15:43.921Z,11.20
2023-03-25T07:18:31.616Z,11.40
2023-03-25T07:21:19.777Z,11.60
2023-03-25T07:24:07.921Z,11.50
2023-03-25T07:26:55.391Z,11.50
2023-03-25T07:29:42.941Z,11.50
2023-03-25T07:32:30.454Z,11.40
2023-03-25T07:35:18.153Z,11.30
2023-03-25T07:38:05.778Z,11.20
2023-03-25T07:40:53.318Z,11.10
2023-03-25T07:43:41.221Z,11.10
2023-03-25T07:46:29.075Z,11.10
2023-03-25T07:49:17.758Z,11.20
2023-03-25T07:52:05.347Z,11.30
2023-03-25T07:54:52.954Z,11.40
2023-03-25T07:57:43.807Z,11.60
2023-03-25T08:00:31.352Z,11.70
2023-03-25T08:03:18.997Z,11.80
2023-03-25T08:06:08.185Z,11.70
2023-03-25T08:08:55.999Z,11.70
2023-03-25T08:11:43.598Z,11.70
2023-03-25T08:14:31.515Z,11.70
2023-03-25T08:17:19.004Z,11.70
2023-03-25T08:20:09.028Z,11.80
2023-03-25T08:22:58.571Z,11.70
2023-03-25T08:25:53.813Z,11.30
2023-03-25T08:28:41.629Z,11.30
2023-03-25T08:31:32.681Z,11.30
2023-03-25T08:34:22.972Z,11.40
2023-03-25T08:37:16.856Z,11.70
2023-03-25T08:40:11.402Z,11.90
2023-03-25T08:42:59.300Z,12.00
2023-03-25T08:45:46.890Z,12.10
2023-03-25T08:48:34.532Z,12.00
2023-03-25T08:51:22.717Z,12.10
2023-03-25T08:54:10.485Z,12.10
2023-03-25T08:56:58.145Z,12.20
2023-03-25T08:59:45.734Z,12.20
2023-03-25T09:02:33.332Z,12.10
2023-03-25T09:05:20.926Z,12.40
2023-03-25T09:08:09.768Z,12.60
2023-03-25T09:10:57.304Z,12.70
2023-03-25T09:13:45.006Z,12.90
2023-03-25T09:16:34.454Z,13.00
2023-03-25T09:19:22.148Z,12.80
2023-03-25T09:22:09.764Z,12.80
2023-03-25T09:24:57.453Z,12.80
2023-03-25T09:27:45.542Z,12.60
2023-03-25T09:30:33.190Z,12.70
2023-03-25T09:33:20.978Z,12.80
2023-03-25T09:36:08.769Z,13.00
2023-03-25T09:38:56.339Z,13.20
2023-03-25T09:42:05.438Z,13.20
2023-03-25T09:45:22.090Z,13.40
2023-03-25T09:48:30.884Z,13.40
2023-03-25T09:51:38.791Z,13.50
2023-03-25T09:54:43.171Z,13.40
2023-03-25T09:57:33.599Z,13.30
2023-03-25T10:00:25.604Z,13.80
2023-03-25T10:03:37.689Z,14.10
2023-03-25T10:06:26.512Z,14.50
2023-03-25T10:09:54.396Z,15.00
2023-03-25T10:12:44.736Z,15.20
2023-03-25T10:16:00.170Z,15.50
2023-03-25T10:18:59.692Z,15.40
2023-03-25T10:22:07.689Z,15.20
2023-03-25T10:25:09.952Z,15.10
2023-03-25T10:28:01.328Z,15.00
2023-03-25T10:30:53.925Z,14.70
2023-03-25T10:33:53.154Z,14.50
2023-03-25T10:36:57.831Z,14.50
2023-03-25T10:39:47.478Z,14.50
2023-03-25T10:42:48.472Z,14.50
2023-03-25T10:45:36.814Z,14.60
2023-03-25T10:48:31.278Z,14.70
2023-03-25T10:51:26.583Z,14.90
2023-03-25T10:54:17.331Z,15.00
2023-03-25T10:57:11.114Z,15.10
2023-03-25T11:00:12.874Z,15.10
2023-03-25T11:03:02.323Z,15.10
2023-03-25T11:05:50.273Z,15.40
2023-03-25T11:08:39.993Z,15.30
2023-03-25T11:11:35.942Z,15.30
2023-03-25T11:14:28.532Z,14.80
2023-03-25T11:17:21.175Z,14.40
2023-03-25T11:20:21.614Z,14.60
2023-03-25T11:23:25.654Z,14.60
2023-03-25T11:26:20.680Z,14.60
2023-03-25T11:29:14.446Z,14.90
2023-03-25T11:32:16.985Z,15.20
2023-03-25T11:35:29.975Z,15.50
2023-03-25T11:38:23.567Z,15.70
2023-03-25T11:41:14.795Z,16.00
2023-03-25T11:44:06.030Z,16.30
2023-03-25T11:47:07.998Z,16.30
2023-03-25T11:49:56.106Z,16.00
2023-03-25T11:52:47.171Z,15.70
2023-03-25T11:55:55.708Z,15.30
2023-03-25T11:58:43.621Z,15.20
2023-03-25T12:02:03.095Z,15.20
2023-03-25T12:05:16.710Z,15.00
2023-03-25T12:08:17.505Z,14.90
2023-03-25T12:11:17.160Z,14.70
2023-03-25T12:14:28.300Z,14.40
2023-03-25T12:17:33.604Z,14.40
2023-03-25T12:20:32.364Z,14.60
2023-03-25T12:23:51.962Z,14.80
2023-03-25T12:27:28.595Z,15.20
2023-03-25T12:30:46.412Z,15.50
2023-03-25T12:34:19.025Z,15.50
2023-03-25T12:37:39.724Z,15.60
2023-03-25T12:40:44.799Z,15.70
2023-03-25T12:44:12.755Z,16.00
2023-03-25T12:47:41.893Z,16.00
2023-03-25T12:50:38.311Z,16.30
2023-03-25T12:54:14.538Z,16.70
2023-03-25T12:57:11.251Z,16.70
2023-03-25T13:00:14.390Z,15.70
2023-03-25T13:03:43.151Z,15.20
2023-03-25T13:06:59.348Z,14.90
2023-03-25T13:10:02.079Z,14.80
2023-03-25T13:12:57.172Z,14.80
2023-03-25T13:15:57.613Z,14.60
2023-03-25T13:19:10.751Z,14.60
2023-03-25T13:22:05.967Z,14.60
2023-03-25T13:25:05.401Z,14.60
2023-03-25T13:27:58.021Z,14.60
2023-03-25T13:30:49.737Z,14.70
2023-03-25T13:33:45.828Z,14.90
2023-03-25T13:36:42.905Z,15.20
2023-03-25T13:40:13.570Z,15.40
2023-03-25T13:43:13.475Z,15.60
2023-03-25T13:46:15.881Z,15.30
2023-03-25T13:49:32.625Z,15.10
2023-03-25T13:52:21.094Z,14.90
2023-03-25T13:55:21.329Z,14.70
2023-03-25T13:58:47.098Z,14.50
2023-03-25T14:01:53.543Z,14.10
2023-03-25T14:05:13.653Z,13.30
2023-03-25T14:09:06.424Z,12.40
2023-03-25T14:12:25.590Z,12.20
2023-03-25T14:15:59.129Z,12.00
2023-03-25T14:18:56.626Z,12.00
2023-03-25T14:21:50.205Z,12.30
2023-03-25T14:24:38.631Z,12.60
2023-03-25T14:27:37.679Z,12.90
2023-03-25T14:30:31.270Z,13.10
2023-03-25T14:33:19.768Z,13.10
2023-03-25T14:36:07.832Z,13.30
2023-03-25T14:38:57.818Z,13.40
2023-03-25T14:42:08.548Z,13.40
2023-03-25T14:45:38.717Z,13.30
2023-03-25T14:48:54.579Z,13.60
2023-03-25T14:51:48.960Z,14.20
2023-03-25T14:54:36.809Z,14.50
2023-03-25T14:57:29.758Z,14.80
2023-03-25T15:00:34.601Z,14.90
2023-03-25T15:03:33.948Z,14.50
2023-03-25T15:06:35.148Z,14.30
2023-03-25T15:09:23.568Z,14.10
2023-03-25T15:12:19.432Z,14.00
2023-03-25T15:15:53.994Z,14.10
2023-03-25T15:19:13.670Z,14.30
2023-03-25T15:22:01.531Z,14.50
2023-03-25T15:24:56.714Z,14.70
2023-03-25T15:27:57.124Z,14.90
2023-03-25T15:31:20.413Z,14.60
2023-03-25T15:34:28.228Z,13.60
2023-03-25T15:37:51.206Z,13.00
2023-03-25T15:41:17.426Z,12.40
2023-03-25T15:44:47.821Z,11.80
2023-03-25T15:48:00.689Z,11.20
2023-03-25T15:51:54.942Z,11.00
2023-03-25T15:55:09.420Z,10.70
2023-03-25T15:58:04.894Z,10.40
2023-03-25T16:01:00.158Z,10.30
2023-03-25T16:04:20.900Z,10.20
2023-03-25T16:07:14.466Z,9.80
2023-03-25T16:10:38.369Z,9.50
2023-03-25T16:13:25.875Z,8.80
2023-03-25T16:16:17.411Z,8.30
2023-03-25T16:19:11.852Z,7.90
2023-03-25T16:22:08.466Z,7.80
2023-03-25T16:25:14.284Z,7.70
2023-03-25T16:28:05.176Z,7.70
2023-03-25T16:30:55.348Z,7.80
2023-03-25T16:33:44.545Z,7.90
2023-03-25T16:36:32.139Z,7.90
2023-03-25T16:39:21.837Z,7.80
2023-03-25T16:42:34.479Z,7.80
2023-03-25T16:45:23.446Z,7.90
2023-03-25T16:48:25.044Z,7.90
2023-03-25T16:51:21.400Z,7.80
2023-03-25T16:54:20.833Z,7.70
2023-03-25T16:57:14.575Z,7.70
2023-03-25T17:00:18.226Z,7.60
2023-03-25T17:03:06.399Z,7.60
2023-03-25T17:06:28.394Z,7.70
2023-03-25T17:09:21.026Z,7.70
2023-03-25T17:12:16.587Z,7.80
2023-03-25T17:15:09.413Z,7.80
2023-03-25T17:18:01.433Z,7.80
2023-03-25T17:20:50.831Z,7.90
2023-03-25T17:23:41.591Z,7.90
2023-03-25T17:27:25.215Z,7.90
2023-03-25T17:30:37.129Z,8.00
2023-03-25T17:33:34.421Z,8.30
2023-03-25T17:36:22.160Z,8.40
2023-03-25T17:39:26.588Z,8.40
2023-03-25T17:42:24.876Z,8.30
2023-03-25T17:45:15.743Z,8.20
2023-03-25T17:48:03.809Z,8.10
2023-03-25T17:50:54.800Z,7.80
2023-03-25T17:53:42.321Z,7.60
2023-03-25T17:56:30.408Z,7.40
2023-03-25T17:59:21.766Z,7.30
2023-03-25T18:02:17.667Z,7.30
2023-03-25T18:05:07.358Z,7.20
2023-03-25T18:07:56.526Z,7.20
2023-03-25T18:10:44.122Z,7.20
2023-03-25T18:13:31.632Z,7.10
2023-03-25T18:16:22.210Z,7.10
2023-03-25T18:19:32.169Z,7.10
2023-03-25T18:22:20.519Z,7.20
2023-03-25T18:25:10.160Z,7.20
2023-03-25T18:27:58.181Z,7.20
2023-03-25T18:30:53.560Z,7.20
2023-03-25T18:33:42.084Z,7.00
2023-03-25T18:36:29.655Z,6.90
2023-03-25T18:39:24.313Z,6.80
2023-03-25T18:42:12.062Z,6.80
2023-03-25T18:44:59.536Z,6.70
2023-03-25T18:47:47.744Z,6.70
2023-03-25T18:50:40.460Z,6.60
2023-03-25T18:53:29.956Z,6.50
2023-03-25T18:56:19.838Z,6.30
2023-03-25T18:59:07.936Z,6.20
2023-03-25T19:01:55.478Z,6.10
2023-03-25T19:04:50.591Z,6.10
2023-03-25T19:07:49.572Z,6.10
2023-03-25T19:10:37.307Z,6.10
2023-03-25T19:13:25.003Z,6.20
2023-03-25T19:16:12.533Z,6.20
2023-03-25T19:19:00.702Z,6.20
2023-03-25T19:21:48.492Z,6.30
2023-03-25T19:24:36.130Z,6.20
2023-03-25T19:27:23.641Z,6.30
2023-03-25T19:30:16.087Z,6.40
2023-03-25T19:33:04.000Z,6.50
2023-03-25T19:35:55.489Z,6.60
2023-03-25T19:38:43.299Z,6.60
2023-03-25T19:41:31.115Z,6.70
2023-03-25T19:44:18.691Z,6.60
2023-03-25T19:47:06.261Z,6.60
2023-03-25T19:49:53.785Z,6.60
2023-03-25T19:52:43.540Z,6.50
2023-03-25T19:55:31.272Z,6.40
2023-03-25T19:58:20.500Z,6.40
2023-03-25T20:01:08.721Z,6.30
2023-03-25T20:03:56.222Z,6.20
2023-03-25T20:06:45.384Z,6.20
2023-03-25T20:09:33.037Z,6.20
2023-03-25T20:12:20.628Z,6.10
2023-03-25T20:15:10.333Z,6.10
2023-03-25T20:17:57.960Z,6.10
2023-03-25T20:20:45.591Z,6.10
2023-03-25T20:23:33.198Z,6.10
2023-03-25T20:26:20.912Z,6.00
2023-03-25T20:29:09.008Z,6.00
2023-03-25T20:31:57.306Z,5.80
2023-03-25T20:34:44.841Z,5.80
2023-03-25T20:37:32.431Z,5.70
2023-03-25T20:40:25.338Z,5.60
2023-03-25T20:43:18.483Z,5.60
2023-03-25T20:46:06.380Z,5.50
2023-03-25T20:48:54.946Z,5.40
2023-03-25T20:51:43.614Z,5.40
2023-03-25T20:54:31.662Z,5.30
2023-03-25T20:57:19.274Z,5.20
2023-03-25T21:00:08.627Z,5.20
2023-03-25T21:02:57.776Z,5.20
2023-03-25T21:05:46.888Z,5.20
2023-03-25T21:08:34.567Z,5.10
2023-03-25T21:11:22.442Z,5.10
2023-03-25T21:14:12.996Z,5.00
2023-03-25T21:17:00.658Z,4.90
2023-03-25T21:19:49.358Z,4.90
2023-03-25T21:22:45.136Z,4.80
2023-03-25T21:25:36.324Z,4.80
2023-03-25T21:28:26.047Z,4.80
2023-03-25T21:31:20.275Z,4.90
2023-03-25T21:34:07.831Z,4.90
2023-03-25T21:36:56.531Z,4.90
2023-03-25T21:39:44.184Z,4.90
2023-03-25T21:42:31.803Z,4.80
2023-03-25T21:45:19.677Z,4.70
2023-03-25T21:48:08.440Z,4.70
2023-03-25T21:50:59.130Z,4.70
2023-03-25T21:53:47.774Z,4.70
2023-03-25T21:56:35.399Z,4.70
2023-03-25T21:59:23.946Z,4.70
2023-03-25T22:02:14.367Z,4.70
2023-03-25T22:05:01.854Z,4.80
2023-03-25T22:07:49.370Z,4.80
2023-03-25T22:10:36.962Z,4.80
2023-03-25T22:13:24.466Z,4.70
2023-03-25T22:16:15.736Z,4.60
2023-03-25T22:19:04.201Z,4.50
2023-03-25T22:21:51.761Z,4.50
2023-03-25T22:24:39.626Z,4.40
2023-03-25T22:27:27.199Z,4.40
2023-03-25T22:30:15.795Z,4.40
2023-03-25T22:33:03.572Z,4.40
2023-03-25T22:35:51.604Z,4.40
2023-03-25T22:38:51.461Z,4.50
2023-03-25T22:41:39.028Z,4.60
2023-03-25T22:44:26.746Z,4.60
2023-03-25T22:47:14.321Z,4.70
2023-03-25T22:50:01.966Z,4.70
2023-03-25T22:52:49.482Z,4.70
2023-03-25T22:55:38.062Z,4.70
2023-03-25T22:58:28.814Z,4.70
2023-03-25T23:01:25.876Z,4.60
2023-03-25T23:04:14.113Z,4.50
2023-03-25T23:07:08.061Z,4.50
2023-03-25T23:09:56.401Z,4.50
2023-03-25T23:12:43.946Z,4.40
2023-03-25T23:15:31.417Z,4.40
2023-03-25T23:18:18.970Z,4.30
2023-03-25T23:21:12.079Z,4.30
2023-03-25T23:24:03.400Z,4.20
2023-03-25T23:26:50.962Z,4.20
2023-03-25T23:29:39.619Z,4.20
2023-03-25T23:32:27.646Z,4.30
2023-03-25T23:35:19.355Z,4.30
2023-03-25T23:38:06.928Z,4.20
2023-03-25T23:41:07.872Z,4.20
2023-03-25T23:43:56.162Z,4.20
2023-03-25T23:46:44.132Z,4.20
2023-03-25T23:49:33.692Z,4.30
2023-03-25T23:52:21.641Z,4.50
2023-03-25T23:55:12.639Z,4.60
2023-03-25T23:58:00.167Z,4.70
